sensor_id;sensor_type;location;lat;lon;timestamp;temperature;humidity
3770;DHT22;1900;48.890;9.190;2023-12-14T00:02:03;11.50;69.80
3770;DHT22;1900;48.890;9.190;2023-12-14T00:04:28;11.50;69.70
3770;DHT22;1900;48.890;9.190;2023-12-14T00:06:54;11.50;69.70
3770;DHT22;1900;48.890;9.190;2023-12-14T00:09:20;11.50;69.70
3770;DHT22;1900;48.890;9.190;2023-12-14T00:11:46;11.50;69.70
3770;DHT22;1900;48.890;9.190;2023-12-14T00:14:11;11.50;69.70
3770;DHT22;1900;48.890;9.190;2023-12-14T00:16:37;11.50;69.70
3770;DHT22;1900;48.890;9.190;2023-12-14T00:19:03;11.50;69.70
3770;DHT22;1900;48.890;9.190;2023-12-14T00:21:29;11.50;69.70
3770;DHT22;1900;48.890;9.190;2023-12-14T00:23:54;11.50;69.80
3770;DHT22;1900;48.890;9.190;2023-12-14T00:26:20;11.50;69.80
3770;DHT22;1900;48.890;9.190;2023-12-14T00:28:46;11.50;70.40
3770;DHT22;1900;48.890;9.190;2023-12-14T00:31:12;11.50;69.80
3770;DHT22;1900;48.890;9.190;2023-12-14T00:33:38;11.50;69.80
3770;DHT22;1900;48.890;9.190;2023-12-14T00:36:04;11.50;69.80
3770;DHT22;1900;48.890;9.190;2023-12-14T00:38:30;11.50;69.80
3770;DHT22;1900;48.890;9.190;2023-12-14T00:40:55;11.50;69.80
3770;DHT22;1900;48.890;9.190;2023-12-14T00:43:21;11.50;69.80
3770;DHT22;1900;48.890;9.190;2023-12-14T00:45:47;11.50;69.80
3770;DHT22;1900;48.890;9.190;2023-12-14T00:48:13;11.50;69.70
3770;DHT22;1900;48.890;9.190;2023-12-14T00:50:38;11.50;69.70
3770;DHT22;1900;48.890;9.190;2023-12-14T00:53:04;11.40;69.60
3770;DHT22;1900;48.890;9.190;2023-12-14T00:55:30;11.40;69.70
3770;DHT22;1900;48.890;9.190;2023-12-14T00:57:55;11.50;69.80
3770;DHT22;1900;48.890;9.190;2023-12-14T01:00:21;11.50;69.90
3770;DHT22;1900;48.890;9.190;2023-12-14T01:02:47;11.50;69.90
3770;DHT22;1900;48.890;9.190;2023-12-14T01:05:13;11.50;69.90
3770;DHT22;1900;48.890;9.190;2023-12-14T01:07:38;11.40;69.80
3770;DHT22;1900;48.890;9.190;2023-12-14T01:10:04;11.50;70.00
3770;DHT22;1900;48.890;9.190;2023-12-14T01:12:30;11.50;70.00
3770;DHT22;1900;48.890;9.190;2023-12-14T01:14:56;11.50;70.00
3770;DHT22;1900;48.890;9.190;2023-12-14T01:17:22;11.50;70.00
3770;DHT22;1900;48.890;9.190;2023-12-14T01:19:47;11.50;70.00
3770;DHT22;1900;48.890;9.190;2023-12-14T01:22:13;11.50;70.00
3770;DHT22;1900;48.890;9.190;2023-12-14T01:24:39;11.50;70.00
3770;DHT22;1900;48.890;9.190;2023-12-14T01:27:04;11.50;70.00
3770;DHT22;1900;48.890;9.190;2023-12-14T01:29:30;11.50;70.00
3770;DHT22;1900;48.890;9.190;2023-12-14T01:31:56;11.50;70.00
3770;DHT22;1900;48.890;9.190;2023-12-14T01:34:22;11.50;70.00
3770;DHT22;1900;48.890;9.190;2023-12-14T01:36:47;11.50;70.00
3770;DHT22;1900;48.890;9.190;2023-12-14T01:39:13;11.50;69.90
3770;DHT22;1900;48.890;9.190;2023-12-14T01:41:39;11.50;69.90
3770;DHT22;1900;48.890;9.190;2023-12-14T01:44:05;11.50;70.00
3770;DHT22;1900;48.890;9.190;2023-12-14T01:46:31;11.50;70.00
3770;DHT22;1900;48.890;9.190;2023-12-14T01:48:56;11.50;70.00
3770;DHT22;1900;48.890;9.190;2023-12-14T01:51:22;11.50;70.00
3770;DHT22;1900;48.890;9.190;2023-12-14T01:53:48;11.50;69.90
3770;DHT22;1900;48.890;9.190;2023-12-14T01:56:14;11.50;69.80
3770;DHT22;1900;48.890;9.190;2023-12-14T01:58:40;11.50;69.80
3770;DHT22;1900;48.890;9.190;2023-12-14T02:03:48;11.50;69.90
3770;DHT22;1900;48.890;9.190;2023-12-14T02:06:15;11.50;69.90
3770;DHT22;1900;48.890;9.190;2023-12-14T02:08:41;11.50;69.80
3770;DHT22;1900;48.890;9.190;2023-12-14T02:11:07;11.50;69.60
3770;DHT22;1900;48.890;9.190;2023-12-14T02:13:33;11.50;69.70
3770;DHT22;1900;48.890;9.190;2023-12-14T02:15:59;11.40;69.70
3770;DHT22;1900;48.890;9.190;2023-12-14T02:18:24;11.40;69.70
3770;DHT22;1900;48.890;9.190;2023-12-14T02:20:50;11.40;69.70
3770;DHT22;1900;48.890;9.190;2023-12-14T02:23:16;11.50;69.90
3770;DHT22;1900;48.890;9.190;2023-12-14T02:25:42;11.50;69.90
3770;DHT22;1900;48.890;9.190;2023-12-14T02:28:08;11.50;70.00
3770;DHT22;1900;48.890;9.190;2023-12-14T02:30:33;11.50;70.00
3770;DHT22;1900;48.890;9.190;2023-12-14T02:32:59;11.50;70.00
3770;DHT22;1900;48.890;9.190;2023-12-14T02:35:25;11.40;69.80
3770;DHT22;1900;48.890;9.190;2023-12-14T02:37:50;11.50;69.90
3770;DHT22;1900;48.890;9.190;2023-12-14T02:40:16;11.50;70.00
3770;DHT22;1900;48.890;9.190;2023-12-14T02:42:42;11.50;70.00
3770;DHT22;1900;48.890;9.190;2023-12-14T02:45:08;11.40;69.80
3770;DHT22;1900;48.890;9.190;2023-12-14T02:47:34;11.50;70.00
3770;DHT22;1900;48.890;9.190;2023-12-14T02:50:06;11.50;70.00
3770;DHT22;1900;48.890;9.190;2023-12-14T02:52:32;11.50;70.00
3770;DHT22;1900;48.890;9.190;2023-12-14T02:54:57;11.50;70.00
3770;DHT22;1900;48.890;9.190;2023-12-14T02:57:23;11.50;70.00
3770;DHT22;1900;48.890;9.190;2023-12-14T02:59:49;11.50;70.00
3770;DHT22;1900;48.890;9.190;2023-12-14T03:02:15;11.50;69.90
3770;DHT22;1900;48.890;9.190;2023-12-14T03:04:41;11.50;69.90
3770;DHT22;1900;48.890;9.190;2023-12-14T03:07:06;11.50;69.90
3770;DHT22;1900;48.890;9.190;2023-12-14T03:09:33;11.50;69.80
3770;DHT22;1900;48.890;9.190;2023-12-14T03:12:00;11.50;69.90
3770;DHT22;1900;48.890;9.190;2023-12-14T03:14:31;11.50;69.90
3770;DHT22;1900;48.890;9.190;2023-12-14T03:16:57;11.40;69.80
3770;DHT22;1900;48.890;9.190;2023-12-14T03:19:22;11.40;69.70
3770;DHT22;1900;48.890;9.190;2023-12-14T03:21:48;11.50;69.90
3770;DHT22;1900;48.890;9.190;2023-12-14T03:24:14;11.40;69.80
3770;DHT22;1900;48.890;9.190;2023-12-14T03:26:39;11.40;69.80
3770;DHT22;1900;48.890;9.190;2023-12-14T03:29:05;11.40;69.80
3770;DHT22;1900;48.890;9.190;2023-12-14T03:31:50;11.40;69.80
3770;DHT22;1900;48.890;9.190;2023-12-14T03:34:16;11.40;69.80
3770;DHT22;1900;48.890;9.190;2023-12-14T03:36:42;11.40;69.90
3770;DHT22;1900;48.890;9.190;2023-12-14T03:39:08;11.40;69.90
3770;DHT22;1900;48.890;9.190;2023-12-14T03:41:34;11.40;69.90
3770;DHT22;1900;48.890;9.190;2023-12-14T03:44:18;11.40;70.00
3770;DHT22;1900;48.890;9.190;2023-12-14T03:46:44;11.40;70.00
3770;DHT22;1900;48.890;9.190;2023-12-14T03:49:10;11.40;70.00
3770;DHT22;1900;48.890;9.190;2023-12-14T03:51:36;11.50;70.10
3770;DHT22;1900;48.890;9.190;2023-12-14T03:54:01;11.40;70.00
3770;DHT22;1900;48.890;9.190;2023-12-14T03:56:27;11.50;70.10
3770;DHT22;1900;48.890;9.190;2023-12-14T03:58:53;11.40;70.00
3770;DHT22;1900;48.890;9.190;2023-12-14T04:01:19;11.50;70.00
3770;DHT22;1900;48.890;9.190;2023-12-14T04:03:46;11.50;70.00
3770;DHT22;1900;48.890;9.190;2023-12-14T04:06:12;11.50;70.30
3770;DHT22;1900;48.890;9.190;2023-12-14T04:08:38;11.50;70.00
3770;DHT22;1900;48.890;9.190;2023-12-14T04:11:04;11.50;70.00
3770;DHT22;1900;48.890;9.190;2023-12-14T04:13:30;11.50;70.00
3770;DHT22;1900;48.890;9.190;2023-12-14T04:15:56;11.40;69.90
3770;DHT22;1900;48.890;9.190;2023-12-14T04:18:23;11.40;69.90
3770;DHT22;1900;48.890;9.190;2023-12-14T04:20:49;11.40;69.80
3770;DHT22;1900;48.890;9.190;2023-12-14T04:23:15;11.50;69.90
3770;DHT22;1900;48.890;9.190;2023-12-14T04:25:41;11.50;70.00
3770;DHT22;1900;48.890;9.190;2023-12-14T04:28:06;11.50;70.00
3770;DHT22;1900;48.890;9.190;2023-12-14T04:30:32;11.40;69.90
3770;DHT22;1900;48.890;9.190;2023-12-14T04:32:58;11.50;70.10
3770;DHT22;1900;48.890;9.190;2023-12-14T04:35:23;11.50;70.70
3770;DHT22;1900;48.890;9.190;2023-12-14T04:37:49;11.50;70.10
3770;DHT22;1900;48.890;9.190;2023-12-14T04:40:15;11.40;70.00
3770;DHT22;1900;48.890;9.190;2023-12-14T04:42:44;11.50;70.20
3770;DHT22;1900;48.890;9.190;2023-12-14T04:45:10;11.50;70.20
3770;DHT22;1900;48.890;9.190;2023-12-14T04:47:36;11.50;70.20
3770;DHT22;1900;48.890;9.190;2023-12-14T04:50:03;11.50;70.20
3770;DHT22;1900;48.890;9.190;2023-12-14T04:52:29;11.50;70.20
3770;DHT22;1900;48.890;9.190;2023-12-14T04:54:54;11.50;70.20
3770;DHT22;1900;48.890;9.190;2023-12-14T04:57:20;11.50;70.20
3770;DHT22;1900;48.890;9.190;2023-12-14T04:59:46;11.50;70.20
3770;DHT22;1900;48.890;9.190;2023-12-14T05:02:12;11.50;70.10
3770;DHT22;1900;48.890;9.190;2023-12-14T05:04:38;11.50;70.10
3770;DHT22;1900;48.890;9.190;2023-12-14T05:07:03;11.50;70.20
3770;DHT22;1900;48.890;9.190;2023-12-14T05:09:29;11.50;70.20
3770;DHT22;1900;48.890;9.190;2023-12-14T05:11:55;11.50;70.20
3770;DHT22;1900;48.890;9.190;2023-12-14T05:14:21;11.60;70.30
3770;DHT22;1900;48.890;9.190;2023-12-14T05:16:46;11.50;70.80
3770;DHT22;1900;48.890;9.190;2023-12-14T05:19:12;11.60;70.30
3770;DHT22;1900;48.890;9.190;2023-12-14T05:21:38;11.50;70.00
3770;DHT22;1900;48.890;9.190;2023-12-14T05:24:04;11.50;70.70
3770;DHT22;1900;48.890;9.190;2023-12-14T05:26:30;11.50;70.10
3770;DHT22;1900;48.890;9.190;2023-12-14T05:28:57;11.50;70.00
3770;DHT22;1900;48.890;9.190;2023-12-14T05:31:22;11.50;70.10
3770;DHT22;1900;48.890;9.190;2023-12-14T05:33:48;11.50;70.10
3770;DHT22;1900;48.890;9.190;2023-12-14T05:36:14;11.50;70.10
3770;DHT22;1900;48.890;9.190;2023-12-14T05:38:41;11.50;70.20
3770;DHT22;1900;48.890;9.190;2023-12-14T05:41:07;11.50;70.10
3770;DHT22;1900;48.890;9.190;2023-12-14T05:43:33;11.50;70.00
3770;DHT22;1900;48.890;9.190;2023-12-14T05:45:58;11.50;70.00
3770;DHT22;1900;48.890;9.190;2023-12-14T05:48:24;11.50;70.00
3770;DHT22;1900;48.890;9.190;2023-12-14T05:50:52;11.40;70.00
3770;DHT22;1900;48.890;9.190;2023-12-14T05:53:18;11.40;70.10
3770;DHT22;1900;48.890;9.190;2023-12-14T05:55:44;11.40;70.10
3770;DHT22;1900;48.890;9.190;2023-12-14T05:58:10;11.50;70.30
3770;DHT22;1900;48.890;9.190;2023-12-14T06:00:36;11.50;70.30
3770;DHT22;1900;48.890;9.190;2023-12-14T06:03:02;11.40;70.30
3770;DHT22;1900;48.890;9.190;2023-12-14T06:05:28;11.50;70.40
3770;DHT22;1900;48.890;9.190;2023-12-14T06:07:53;11.50;70.40
3770;DHT22;1900;48.890;9.190;2023-12-14T06:10:19;11.50;70.40
3770;DHT22;1900;48.890;9.190;2023-12-14T06:12:47;11.50;70.40
3770;DHT22;1900;48.890;9.190;2023-12-14T06:15:13;11.50;70.40
3770;DHT22;1900;48.890;9.190;2023-12-14T06:17:39;11.50;70.50
3770;DHT22;1900;48.890;9.190;2023-12-14T06:20:07;11.50;70.50
3770;DHT22;1900;48.890;9.190;2023-12-14T06:22:40;11.50;70.50
3770;DHT22;1900;48.890;9.190;2023-12-14T06:25:06;11.50;70.50
3770;DHT22;1900;48.890;9.190;2023-12-14T06:27:33;11.50;70.50
3770;DHT22;1900;48.890;9.190;2023-12-14T06:29:59;11.50;70.50
3770;DHT22;1900;48.890;9.190;2023-12-14T06:32:25;11.60;70.60
3770;DHT22;1900;48.890;9.190;2023-12-14T06:34:50;11.50;70.50
3770;DHT22;1900;48.890;9.190;2023-12-14T06:37:16;11.60;70.60
3770;DHT22;1900;48.890;9.190;2023-12-14T06:39:42;11.60;70.50
3770;DHT22;1900;48.890;9.190;2023-12-14T06:42:08;11.60;70.50
3770;DHT22;1900;48.890;9.190;2023-12-14T06:44:34;11.50;70.40
3770;DHT22;1900;48.890;9.190;2023-12-14T06:46:59;11.60;70.50
3770;DHT22;1900;48.890;9.190;2023-12-14T06:49:25;11.60;70.40
3770;DHT22;1900;48.890;9.190;2023-12-14T06:51:51;11.50;70.40
3770;DHT22;1900;48.890;9.190;2023-12-14T06:54:17;11.60;70.60
3770;DHT22;1900;48.890;9.190;2023-12-14T06:56:43;11.60;70.60
3770;DHT22;1900;48.890;9.190;2023-12-14T06:59:09;11.60;71.30
3770;DHT22;1900;48.890;9.190;2023-12-14T07:01:37;11.60;70.60
3770;DHT22;1900;48.890;9.190;2023-12-14T07:04:06;11.60;70.70
3770;DHT22;1900;48.890;9.190;2023-12-14T07:06:33;11.60;70.80
3770;DHT22;1900;48.890;9.190;2023-12-14T07:09:00;11.60;70.80
3770;DHT22;1900;48.890;9.190;2023-12-14T07:11:26;11.60;70.70
3770;DHT22;1900;48.890;9.190;2023-12-14T07:13:52;11.60;70.70
3770;DHT22;1900;48.890;9.190;2023-12-14T07:16:18;11.60;70.70
3770;DHT22;1900;48.890;9.190;2023-12-14T07:18:44;11.60;70.60
3770;DHT22;1900;48.890;9.190;2023-12-14T07:21:12;11.60;70.60
3770;DHT22;1900;48.890;9.190;2023-12-14T07:23:40;11.60;70.60
3770;DHT22;1900;48.890;9.190;2023-12-14T07:26:06;11.60;70.50
3770;DHT22;1900;48.890;9.190;2023-12-14T07:28:32;11.60;70.50
3770;DHT22;1900;48.890;9.190;2023-12-14T07:30:58;11.60;70.60
3770;DHT22;1900;48.890;9.190;2023-12-14T07:33:24;11.60;70.70
3770;DHT22;1900;48.890;9.190;2023-12-14T07:35:50;11.60;70.70
3770;DHT22;1900;48.890;9.190;2023-12-14T07:38:16;11.60;70.60
3770;DHT22;1900;48.890;9.190;2023-12-14T07:40:41;11.60;70.60
3770;DHT22;1900;48.890;9.190;2023-12-14T07:43:08;11.60;70.60
3770;DHT22;1900;48.890;9.190;2023-12-14T07:45:34;11.60;70.80
3770;DHT22;1900;48.890;9.190;2023-12-14T07:48:00;11.60;70.80
3770;DHT22;1900;48.890;9.190;2023-12-14T07:50:26;11.60;70.90
3770;DHT22;1900;48.890;9.190;2023-12-14T07:52:53;11.60;70.90
3770;DHT22;1900;48.890;9.190;2023-12-14T07:55:19;11.70;71.10
3770;DHT22;1900;48.890;9.190;2023-12-14T07:57:45;11.70;71.10
3770;DHT22;1900;48.890;9.190;2023-12-14T08:00:12;11.70;71.00
3770;DHT22;1900;48.890;9.190;2023-12-14T08:02:37;11.70;71.00
3770;DHT22;1900;48.890;9.190;2023-12-14T08:05:04;11.70;71.10
3770;DHT22;1900;48.890;9.190;2023-12-14T08:07:31;11.70;71.20
3770;DHT22;1900;48.890;9.190;2023-12-14T08:09:59;11.70;71.20
3770;DHT22;1900;48.890;9.190;2023-12-14T08:12:24;11.70;71.20
3770;DHT22;1900;48.890;9.190;2023-12-14T08:14:51;11.70;71.20
3770;DHT22;1900;48.890;9.190;2023-12-14T08:17:17;11.70;71.10
3770;DHT22;1900;48.890;9.190;2023-12-14T08:19:43;11.80;71.10
3770;DHT22;1900;48.890;9.190;2023-12-14T08:22:10;11.70;70.80
3770;DHT22;1900;48.890;9.190;2023-12-14T08:24:44;11.80;70.90
3770;DHT22;1900;48.890;9.190;2023-12-14T08:27:09;11.70;70.80
3770;DHT22;1900;48.890;9.190;2023-12-14T08:29:35;11.70;70.80
3770;DHT22;1900;48.890;9.190;2023-12-14T08:32:01;11.70;70.80
3770;DHT22;1900;48.890;9.190;2023-12-14T08:34:28;11.70;70.90
3770;DHT22;1900;48.890;9.190;2023-12-14T08:36:54;11.70;71.00
3770;DHT22;1900;48.890;9.190;2023-12-14T08:39:20;11.70;71.00
3770;DHT22;1900;48.890;9.190;2023-12-14T08:41:46;11.70;71.00
3770;DHT22;1900;48.890;9.190;2023-12-14T08:44:13;11.70;71.20
3770;DHT22;1900;48.890;9.190;2023-12-14T08:46:45;11.70;71.30
3770;DHT22;1900;48.890;9.190;2023-12-14T08:49:12;11.70;71.20
3770;DHT22;1900;48.890;9.190;2023-12-14T08:51:38;11.70;71.20
3770;DHT22;1900;48.890;9.190;2023-12-14T08:54:05;11.80;71.40
3770;DHT22;1900;48.890;9.190;2023-12-14T08:56:30;11.80;71.50
3770;DHT22;1900;48.890;9.190;2023-12-14T08:58:56;11.80;71.40
3770;DHT22;1900;48.890;9.190;2023-12-14T09:01:23;11.80;71.20
3770;DHT22;1900;48.890;9.190;2023-12-14T09:03:51;11.80;71.20
3770;DHT22;1900;48.890;9.190;2023-12-14T09:06:17;11.80;71.30
3770;DHT22;1900;48.890;9.190;2023-12-14T09:08:44;11.80;71.40
3770;DHT22;1900;48.890;9.190;2023-12-14T09:11:10;11.80;71.50
3770;DHT22;1900;48.890;9.190;2023-12-14T09:13:36;11.80;72.10
3770;DHT22;1900;48.890;9.190;2023-12-14T09:16:02;11.90;71.50
3770;DHT22;1900;48.890;9.190;2023-12-14T09:18:28;11.90;71.60
3770;DHT22;1900;48.890;9.190;2023-12-14T09:20:53;11.90;71.40
3770;DHT22;1900;48.890;9.190;2023-12-14T09:23:19;11.80;71.20
3770;DHT22;1900;48.890;9.190;2023-12-14T09:25:45;11.80;71.30
3770;DHT22;1900;48.890;9.190;2023-12-14T09:28:11;11.80;71.20
3770;DHT22;1900;48.890;9.190;2023-12-14T09:30:37;11.80;71.30
3770;DHT22;1900;48.890;9.190;2023-12-14T09:33:03;11.80;71.30
3770;DHT22;1900;48.890;9.190;2023-12-14T09:35:29;11.80;71.30
3770;DHT22;1900;48.890;9.190;2023-12-14T09:37:54;11.80;71.30
3770;DHT22;1900;48.890;9.190;2023-12-14T09:40:22;11.80;71.30
3770;DHT22;1900;48.890;9.190;2023-12-14T09:42:48;11.90;71.40
3770;DHT22;1900;48.890;9.190;2023-12-14T09:45:16;11.90;71.60
3770;DHT22;1900;48.890;9.190;2023-12-14T09:47:43;11.90;71.70
3770;DHT22;1900;48.890;9.190;2023-12-14T09:50:10;11.90;71.90
3770;DHT22;1900;48.890;9.190;2023-12-14T09:52:38;11.90;72.00
3770;DHT22;1900;48.890;9.190;2023-12-14T09:55:04;12.00;72.10
3770;DHT22;1900;48.890;9.190;2023-12-14T09:57:30;12.00;72.10
3770;DHT22;1900;48.890;9.190;2023-12-14T09:59:56;12.10;72.30
3770;DHT22;1900;48.890;9.190;2023-12-14T10:02:25;12.10;72.30
3770;DHT22;1900;48.890;9.190;2023-12-14T10:04:52;12.10;72.20
3770;DHT22;1900;48.890;9.190;2023-12-14T10:07:19;12.10;72.20
3770;DHT22;1900;48.890;9.190;2023-12-14T10:09:45;12.10;72.10
3770;DHT22;1900;48.890;9.190;2023-12-14T10:12:11;12.20;72.20
3770;DHT22;1900;48.890;9.190;2023-12-14T10:14:37;12.20;72.20
3770;DHT22;1900;48.890;9.190;2023-12-14T10:19:43;12.20;72.00
3770;DHT22;1900;48.890;9.190;2023-12-14T10:22:10;12.20;71.80
3770;DHT22;1900;48.890;9.190;2023-12-14T10:24:36;12.20;71.80
3770;DHT22;1900;48.890;9.190;2023-12-14T10:27:06;12.20;71.90
3770;DHT22;1900;48.890;9.190;2023-12-14T10:29:33;12.20;72.00
3770;DHT22;1900;48.890;9.190;2023-12-14T10:32:03;12.20;72.00
3770;DHT22;1900;48.890;9.190;2023-12-14T10:34:36;12.20;71.90
3770;DHT22;1900;48.890;9.190;2023-12-14T10:37:06;12.20;71.90
3770;DHT22;1900;48.890;9.190;2023-12-14T10:39:35;12.20;71.90
3770;DHT22;1900;48.890;9.190;2023-12-14T10:42:05;12.20;71.80
3770;DHT22;1900;48.890;9.190;2023-12-14T10:44:36;12.20;71.80
3770;DHT22;1900;48.890;9.190;2023-12-14T10:47:03;12.20;71.80
3770;DHT22;1900;48.890;9.190;2023-12-14T10:49:29;12.20;71.90
3770;DHT22;1900;48.890;9.190;2023-12-14T10:51:57;12.20;71.90
3770;DHT22;1900;48.890;9.190;2023-12-14T10:54:25;12.20;72.00
3770;DHT22;1900;48.890;9.190;2023-12-14T10:56:55;12.20;72.10
3770;DHT22;1900;48.890;9.190;2023-12-14T10:59:23;12.20;72.20
3770;DHT22;1900;48.890;9.190;2023-12-14T11:01:53;12.20;72.20
3770;DHT22;1900;48.890;9.190;2023-12-14T11:04:21;12.30;72.20
3770;DHT22;1900;48.890;9.190;2023-12-14T11:06:47;12.30;72.70
3770;DHT22;1900;48.890;9.190;2023-12-14T11:09:17;12.20;71.80
3770;DHT22;1900;48.890;9.190;2023-12-14T11:14:19;12.20;71.70
3770;DHT22;1900;48.890;9.190;2023-12-14T11:16:48;12.20;71.80
3770;DHT22;1900;48.890;9.190;2023-12-14T11:24:23;12.30;72.10
3770;DHT22;1900;48.890;9.190;2023-12-14T11:26:49;12.20;72.00
3770;DHT22;1900;48.890;9.190;2023-12-14T11:29:20;12.30;72.20
3770;DHT22;1900;48.890;9.190;2023-12-14T11:31:47;12.30;72.20
3770;DHT22;1900;48.890;9.190;2023-12-14T11:34:15;12.30;72.20
3770;DHT22;1900;48.890;9.190;2023-12-14T11:36:42;12.30;72.20
3770;DHT22;1900;48.890;9.190;2023-12-14T11:39:09;12.30;72.20
3770;DHT22;1900;48.890;9.190;2023-12-14T11:41:35;12.30;72.20
3770;DHT22;1900;48.890;9.190;2023-12-14T11:44:02;12.30;72.20
3770;DHT22;1900;48.890;9.190;2023-12-14T11:46:29;12.30;72.20
3770;DHT22;1900;48.890;9.190;2023-12-14T11:48:59;12.30;72.20
3770;DHT22;1900;48.890;9.190;2023-12-14T11:51:28;12.30;72.20
3770;DHT22;1900;48.890;9.190;2023-12-14T11:53:56;12.30;72.20
3770;DHT22;1900;48.890;9.190;2023-12-14T11:56:25;12.40;72.40
3770;DHT22;1900;48.890;9.190;2023-12-14T11:58:51;12.40;72.40
3770;DHT22;1900;48.890;9.190;2023-12-14T12:01:19;12.40;72.50
3770;DHT22;1900;48.890;9.190;2023-12-14T12:03:51;12.40;72.60
3770;DHT22;1900;48.890;9.190;2023-12-14T12:06:24;12.40;72.40
3770;DHT22;1900;48.890;9.190;2023-12-14T12:08:51;12.40;72.30
3770;DHT22;1900;48.890;9.190;2023-12-14T12:11:18;12.40;72.30
3770;DHT22;1900;48.890;9.190;2023-12-14T12:13:58;12.50;72.40
3770;DHT22;1900;48.890;9.190;2023-12-14T12:16:25;12.50;72.40
3770;DHT22;1900;48.890;9.190;2023-12-14T12:18:51;12.50;72.30
3770;DHT22;1900;48.890;9.190;2023-12-14T12:21:17;12.50;72.20
3770;DHT22;1900;48.890;9.190;2023-12-14T12:23:43;12.50;72.30
3770;DHT22;1900;48.890;9.190;2023-12-14T12:26:09;12.50;72.20
3770;DHT22;1900;48.890;9.190;2023-12-14T12:28:35;12.50;72.20
3770;DHT22;1900;48.890;9.190;2023-12-14T12:31:02;12.50;72.00
3770;DHT22;1900;48.890;9.190;2023-12-14T12:33:29;12.40;71.90
3770;DHT22;1900;48.890;9.190;2023-12-14T12:35:55;12.40;72.00
3770;DHT22;1900;48.890;9.190;2023-12-14T12:38:21;12.40;71.90
3770;DHT22;1900;48.890;9.190;2023-12-14T12:40:47;12.40;71.80
3770;DHT22;1900;48.890;9.190;2023-12-14T12:43:13;12.40;71.80
3770;DHT22;1900;48.890;9.190;2023-12-14T12:45:40;12.40;71.80
3770;DHT22;1900;48.890;9.190;2023-12-14T12:48:06;12.40;71.70
3770;DHT22;1900;48.890;9.190;2023-12-14T12:50:32;12.40;71.60
3770;DHT22;1900;48.890;9.190;2023-12-14T12:53:01;12.40;71.50
3770;DHT22;1900;48.890;9.190;2023-12-14T12:55:27;12.30;71.50
3770;DHT22;1900;48.890;9.190;2023-12-14T12:57:53;12.30;71.60
3770;DHT22;1900;48.890;9.190;2023-12-14T13:00:20;12.30;71.60
3770;DHT22;1900;48.890;9.190;2023-12-14T13:02:46;12.30;71.70
3770;DHT22;1900;48.890;9.190;2023-12-14T13:05:11;12.30;71.80
3770;DHT22;1900;48.890;9.190;2023-12-14T13:07:38;12.30;71.80
3770;DHT22;1900;48.890;9.190;2023-12-14T13:10:04;12.30;72.00
3770;DHT22;1900;48.890;9.190;2023-12-14T13:12:31;12.30;71.80
3770;DHT22;1900;48.890;9.190;2023-12-14T13:14:57;12.30;71.70
3770;DHT22;1900;48.890;9.190;2023-12-14T13:17:23;12.30;71.80
3770;DHT22;1900;48.890;9.190;2023-12-14T13:19:49;12.30;71.80
3770;DHT22;1900;48.890;9.190;2023-12-14T13:22:15;12.20;71.70
3770;DHT22;1900;48.890;9.190;2023-12-14T13:24:41;12.30;71.80
3770;DHT22;1900;48.890;9.190;2023-12-14T13:27:06;12.20;71.70
3770;DHT22;1900;48.890;9.190;2023-12-14T13:29:33;12.20;71.70
3770;DHT22;1900;48.890;9.190;2023-12-14T13:32:00;12.20;71.70
3770;DHT22;1900;48.890;9.190;2023-12-14T13:34:26;12.20;71.80
3770;DHT22;1900;48.890;9.190;2023-12-14T13:36:54;12.20;71.80
3770;DHT22;1900;48.890;9.190;2023-12-14T13:39:21;12.20;71.90
3770;DHT22;1900;48.890;9.190;2023-12-14T13:41:47;12.20;72.00
3770;DHT22;1900;48.890;9.190;2023-12-14T13:44:13;12.20;71.90
3770;DHT22;1900;48.890;9.190;2023-12-14T13:46:39;12.20;72.00
3770;DHT22;1900;48.890;9.190;2023-12-14T13:49:05;12.20;72.00
3770;DHT22;1900;48.890;9.190;2023-12-14T13:51:30;12.20;72.00
3770;DHT22;1900;48.890;9.190;2023-12-14T13:53:56;12.20;71.90
3770;DHT22;1900;48.890;9.190;2023-12-14T13:56:22;12.20;71.70
3770;DHT22;1900;48.890;9.190;2023-12-14T13:58:49;12.20;71.60
3770;DHT22;1900;48.890;9.190;2023-12-14T14:01:15;12.20;71.40
3770;DHT22;1900;48.890;9.190;2023-12-14T14:03:41;12.20;71.40
3770;DHT22;1900;48.890;9.190;2023-12-14T14:06:08;12.10;71.30
3770;DHT22;1900;48.890;9.190;2023-12-14T14:08:34;12.10;71.50
3770;DHT22;1900;48.890;9.190;2023-12-14T14:11:01;12.10;71.50
3770;DHT22;1900;48.890;9.190;2023-12-14T14:13:28;12.10;71.60
3770;DHT22;1900;48.890;9.190;2023-12-14T14:15:54;12.10;71.70
3770;DHT22;1900;48.890;9.190;2023-12-14T14:18:20;12.10;71.80
3770;DHT22;1900;48.890;9.190;2023-12-14T14:20:45;12.10;71.80
3770;DHT22;1900;48.890;9.190;2023-12-14T14:23:11;12.10;71.80
3770;DHT22;1900;48.890;9.190;2023-12-14T14:25:38;12.10;71.60
3770;DHT22;1900;48.890;9.190;2023-12-14T14:28:04;12.10;71.60
3770;DHT22;1900;48.890;9.190;2023-12-14T14:30:30;12.10;71.70
3770;DHT22;1900;48.890;9.190;2023-12-14T14:32:57;12.10;71.80
3770;DHT22;1900;48.890;9.190;2023-12-14T14:35:23;12.10;71.80
3770;DHT22;1900;48.890;9.190;2023-12-14T14:37:51;12.00;71.60
3770;DHT22;1900;48.890;9.190;2023-12-14T14:40:17;12.10;71.70
3770;DHT22;1900;48.890;9.190;2023-12-14T14:42:44;12.10;71.80
3770;DHT22;1900;48.890;9.190;2023-12-14T14:45:10;12.10;71.80
3770;DHT22;1900;48.890;9.190;2023-12-14T14:47:37;12.10;71.90
3770;DHT22;1900;48.890;9.190;2023-12-14T14:50:06;12.10;71.90
3770;DHT22;1900;48.890;9.190;2023-12-14T14:52:33;12.10;71.90
3770;DHT22;1900;48.890;9.190;2023-12-14T14:54:59;12.10;71.90
3770;DHT22;1900;48.890;9.190;2023-12-14T14:57:24;12.10;72.00
3770;DHT22;1900;48.890;9.190;2023-12-14T14:59:51;12.10;71.90
3770;DHT22;1900;48.890;9.190;2023-12-14T15:02:17;12.10;72.00
3770;DHT22;1900;48.890;9.190;2023-12-14T15:04:42;12.10;71.90
3770;DHT22;1900;48.890;9.190;2023-12-14T15:07:08;12.10;71.70
3770;DHT22;1900;48.890;9.190;2023-12-14T15:09:34;12.10;71.40
3770;DHT22;1900;48.890;9.190;2023-12-14T15:12:00;12.00;71.30
3770;DHT22;1900;48.890;9.190;2023-12-14T15:14:25;12.00;71.30
3770;DHT22;1900;48.890;9.190;2023-12-14T15:17:13;12.00;71.30
3770;DHT22;1900;48.890;9.190;2023-12-14T15:19:39;12.00;71.40
3770;DHT22;1900;48.890;9.190;2023-12-14T15:22:05;11.90;71.40
3770;DHT22;1900;48.890;9.190;2023-12-14T15:24:30;11.90;71.60
3770;DHT22;1900;48.890;9.190;2023-12-14T15:26:57;12.00;71.80
3770;DHT22;1900;48.890;9.190;2023-12-14T15:29:24;12.00;71.90
3770;DHT22;1900;48.890;9.190;2023-12-14T15:31:49;11.90;71.80
3770;DHT22;1900;48.890;9.190;2023-12-14T15:34:19;12.00;71.90
3770;DHT22;1900;48.890;9.190;2023-12-14T15:36:44;12.00;71.90
3770;DHT22;1900;48.890;9.190;2023-12-14T15:39:11;12.00;71.90
3770;DHT22;1900;48.890;9.190;2023-12-14T15:41:37;12.00;71.90
3770;DHT22;1900;48.890;9.190;2023-12-14T15:44:02;12.00;71.90
3770;DHT22;1900;48.890;9.190;2023-12-14T15:46:28;12.00;71.90
3770;DHT22;1900;48.890;9.190;2023-12-14T15:48:54;12.00;71.90
3770;DHT22;1900;48.890;9.190;2023-12-14T15:51:20;12.10;72.00
3770;DHT22;1900;48.890;9.190;2023-12-14T15:53:47;12.00;71.80
3770;DHT22;1900;48.890;9.190;2023-12-14T15:56:12;12.10;71.80
3770;DHT22;1900;48.890;9.190;2023-12-14T15:58:38;12.00;71.60
3770;DHT22;1900;48.890;9.190;2023-12-14T16:01:04;12.00;71.70
3770;DHT22;1900;48.890;9.190;2023-12-14T16:03:30;12.00;71.60
3770;DHT22;1900;48.890;9.190;2023-12-14T16:05:56;12.00;71.60
3770;DHT22;1900;48.890;9.190;2023-12-14T16:08:22;12.00;71.60
3770;DHT22;1900;48.890;9.190;2023-12-14T16:10:48;12.00;71.70